MMPN/UPN METAR and TAF weather

Enter ICAO airport designator
Station Type Date Time Source
MMPN METAR 2021/03/08 00:43 UTC NOAA

MMPN 080043Z 00000KT 10SM SKC 24/11 A3018 RMK HZY


Station Type Date Time Source
MMPN Decoded METAR 2021/03/08 00:43 UTC NOAA

Uruapan / Gen Rayon, Mexico (MMPN) 19-24N 102-02W
Mar 07, 2021 - 07:43 PM EST / 2021.03.08 0043 UTC
Wind: Calm:0
Visibility: 10 mile(s):0
Sky conditions: clear
Temperature: 75 F (24 C)
Dew Point: 51 F (11 C)
Relative Humidity: 43%
Pressure (altimeter): 30.18 in. Hg (1022 hPa)
ob: MMPN 080043Z 00000KT 10SM SKC 24/11 A3018 RMK HZY
cycle: 0

Station Type Date Time Source
MMPN TAF 2021/03/08 06:28 UTC NOAA

TAF MMPN 080525Z 0806/0906 00000KT P6SM SKC
FM081800 25010KT P6SM SKC
FM090300 24005KT P6SM SKC

Example: see airport list